Aplicació Alertes

Dades de l'estació automàtica Sant Pere Pescador

?
?
Resum diari 22:30 TU
Dades diàries de l'estació meteorològica
Temperatura mitjana 9.8 °C
Temperatura màxima 14.0 °C 11:45 TU
Temperatura mínima 6.9 °C 4:00 TU
Humitat relativa mitjana 44%
Precipitació acumulada 0.0 mm
Ratxa màxima del vent (10 m) 52.6 km/h - 324º 13:19 TU
Pressió atmosfèrica mitjana 1026.1 hPa
Irradiació solar global 7.1 MJ/m2

El tram horari està expressat en Temps Universal (TU). Cal sumar una hora en horari d'hivern i dues en horari d'estiu per passar a l'hora oficial.

Sant Pere Pescador

Metadades estació meteorol´gica
Municipi Sant Pere Pescador
Comarca Alt Empordà
Altitud 4 m
Data alta 01.05.1989
Estat actual Operativa
Dades de període
Període
TU
TM
°C
TX
°C
TN
°C
HRM
%
PPT
mm
VVM (10 m)
km/h
DVM (10 m)
graus
VVX (10 m)
km/h
PM
hPa
RS
W/m2
00:00 - 00:30 7.5 7.6 7.4 51 0.0 19.8 334 45.0 1023.0 0
00:30 - 01:00 7.4 7.4 7.3 52 0.0 20.5 330 46.1 1023.4 0
01:00 - 01:30 7.5 7.6 7.3 50 0.0 16.2 340 42.5 1023.8 0
01:30 - 02:00 7.5 7.6 7.4 48 0.0 12.2 349 36.0 1024.3 0
02:00 - 02:30 7.3 7.7 7.2 50 0.0 14.8 337 47.9 1024.7 0
02:30 - 03:00 7.4 7.7 7.2 48 0.0 15.1 340 42.1 1024.4 0
03:00 - 03:30 7.4 7.6 7.2 48 0.0 18.7 332 40.0 1023.9 0
03:30 - 04:00 7.2 7.4 6.9 48 0.0 14.4 335 33.5 1023.9 0
04:00 - 04:30 7.2 7.4 6.9 46 0.0 15.8 334 40.3 1024.0 0
04:30 - 05:00 7.3 7.4 7.2 45 0.0 18.7 326 38.2 1024.2 0
05:00 - 05:30 7.2 7.4 7.0 47 0.0 18.7 319 38.2 1024.4 0
05:30 - 06:00 7.3 7.5 7.2 46 0.0 17.6 324 33.1 1024.6 0
06:00 - 06:30 7.3 7.5 7.0 44 0.0 14.4 324 30.6 1025.0 0
06:30 - 07:00 7.8 8.0 7.4 41 0.0 23.4 322 49.7 1025.0 0
07:00 - 07:30 8.0 8.1 7.9 41 0.0 23.0 327 45.7 1025.1 6
07:30 - 08:00 8.1 8.5 8.0 40 0.0 13.0 337 35.6 1025.4 52
08:00 - 08:30 9.1 9.4 8.6 36 0.0 15.8 5 34.6 1025.5 130
08:30 - 09:00 9.6 9.8 9.4 36 0.0 7.6 300 28.4 1025.8 204
09:00 - 09:30 10.4 10.8 9.9 34 0.0 4.7 233 16.9 1026.1 275
09:30 - 10:00 10.7 11.0 10.4 34 0.0 7.6 290 21.2 1026.4 338
10:00 - 10:30 11.7 12.5 10.8 30 0.0 13.7 318 43.6 1026.6 439
10:30 - 11:00 11.4 12.4 10.9 30 0.0 14.0 342 41.4 1026.5 195
11:00 - 11:30 11.7 13.2 10.9 31 0.0 14.4 345 39.2 1026.5 364
11:30 - 12:00 13.7 14.0 13.3 28 0.0 15.8 342 41.0 1026.3 589
12:00 - 12:30 13.6 13.9 13.4 29 0.0 15.5 342 52.2 1026.2 532
12:30 - 13:00 13.3 13.7 12.5 31 0.0 16.9 329 42.1 1025.9 388
13:00 - 13:30 12.5 12.6 12.3 34 0.0 20.9 327 52.6 1025.5 136
13:30 - 14:00 12.2 12.5 11.8 37 0.0 17.6 334 47.5 1025.2 88
14:00 - 14:30 12.0 12.1 11.8 39 0.0 15.5 334 42.5 1025.3 79
14:30 - 15:00 12.2 12.5 12.0 38 0.0 15.1 337 41.0 1025.6 129
15:00 - 15:30 11.8 12.2 11.6 41 0.0 11.9 346 36.7 1026.0 52
15:30 - 16:00 11.6 11.7 11.4 42 0.0 11.5 352 33.8 1026.2 45
16:00 - 16:30 11.2 11.5 10.8 44 0.0 13.7 353 51.1 1026.3 5
16:30 - 17:00 10.7 10.9 10.5 47 0.0 15.8 8 36.4 1026.7 0
17:00 - 17:30 10.5 10.6 10.3 48 0.0 14.8 0 36.0 1027.0 0
17:30 - 18:00 10.5 10.7 10.4 49 0.0 12.2 349 36.4 1027.3 0
18:00 - 18:30 10.4 10.7 10.1 50 0.0 13.0 348 37.8 1027.9 0
18:30 - 19:00 10.2 10.3 10.0 51 0.0 11.5 348 31.3 1028.3 0
19:00 - 19:30 9.9 10.3 9.8 52 0.0 9.7 333 23.0 1028.7 0
19:30 - 20:00 10.2 10.5 9.8 52 0.0 13.0 345 34.2 1028.8 0
20:00 - 20:30 10.1 10.3 9.8 53 0.0 15.5 333 34.2 1028.5 0
20:30 - 21:00 10.1 10.2 9.9 53 0.0 16.2 329 35.3 1028.5 0
21:00 - 21:30 10.2 10.4 10.0 53 0.0 16.9 329 33.8 1028.7 0
21:30 - 22:00 10.0 10.2 9.8 54 0.0 15.8 329 35.6 1028.9 0
22:00 - 22:30 10.3 10.6 10.0 53 0.0 19.4 327 41.4 1029.2 0
22:30 - 23:00 10.1 10.2 10.0 55 0.0 18.4 326 34.2 1029.3 0

Les dades en taronja només han passat un control de qualitat automàtic. Resta pendent la seva validació definitiva.